sensor_id;sensor_type;location;lat;lon;timestamp;pressure;altitude;pressure_sealevel;temperature;humidity
43119;BME280;28729;49.838;8.650;2022-07-06T00:03:20;100399.50;;;17.87;51.55
43119;BME280;28729;49.838;8.650;2022-07-06T00:07:23;100399.81;;;17.80;51.99
43119;BME280;28729;49.838;8.650;2022-07-06T00:11:25;100410.97;;;17.70;52.46
43119;BME280;28729;49.838;8.650;2022-07-06T00:15:27;100419.59;;;17.63;52.30
43119;BME280;28729;49.838;8.650;2022-07-06T00:19:29;100421.84;;;17.61;52.54
43119;BME280;28729;49.838;8.650;2022-07-06T00:23:31;100414.31;;;17.62;53.24
43119;BME280;28729;49.838;8.650;2022-07-06T00:27:32;100417.09;;;17.62;53.50
43119;BME280;28729;49.838;8.650;2022-07-06T00:31:34;100424.34;;;17.58;53.90
43119;BME280;28729;49.838;8.650;2022-07-06T00:35:36;100419.63;;;17.48;54.44
43119;BME280;28729;49.838;8.650;2022-07-06T00:39:38;100424.63;;;17.46;54.64
43119;BME280;28729;49.838;8.650;2022-07-06T00:43:53;100425.50;;;17.46;55.41
43119;BME280;28729;49.838;8.650;2022-07-06T00:47:58;100427.44;;;17.41;55.28
43119;BME280;28729;49.838;8.650;2022-07-06T00:52:00;100419.66;;;17.38;55.77
43119;BME280;28729;49.838;8.650;2022-07-06T00:56:02;100416.88;;;17.33;55.90
43119;BME280;28729;49.838;8.650;2022-07-06T01:00:05;100419.09;;;17.30;56.70
43119;BME280;28729;49.838;8.650;2022-07-06T01:04:07;100415.47;;;17.30;56.71
43119;BME280;28729;49.838;8.650;2022-07-06T01:08:08;100415.75;;;17.23;57.68
43119;BME280;28729;49.838;8.650;2022-07-06T01:12:10;100412.97;;;17.18;57.72
43119;BME280;28729;49.838;8.650;2022-07-06T01:16:12;100417.44;;;17.14;57.95
43119;BME280;28729;49.838;8.650;2022-07-06T01:20:15;100421.88;;;17.10;58.49
43119;BME280;28729;49.838;8.650;2022-07-06T01:24:20;100421.34;;;17.08;58.46
43119;BME280;28729;49.838;8.650;2022-07-06T01:28:22;100419.38;;;17.03;58.92
43119;BME280;28729;49.838;8.650;2022-07-06T01:32:25;100414.91;;;16.97;59.38
43119;BME280;28729;49.838;8.650;2022-07-06T01:36:27;100417.97;;;16.91;60.24
43119;BME280;28729;49.838;8.650;2022-07-06T01:40:29;100428.84;;;16.82;60.23
43119;BME280;28729;49.838;8.650;2022-07-06T01:44:31;100429.06;;;16.75;60.72
43119;BME280;28729;49.838;8.650;2022-07-06T01:48:33;100429.03;;;16.65;61.87
43119;BME280;28729;49.838;8.650;2022-07-06T01:52:35;100425.16;;;16.61;62.02
43119;BME280;28729;49.838;8.650;2022-07-06T01:56:37;100420.94;;;16.53;62.20
43119;BME280;28729;49.838;8.650;2022-07-06T02:00:40;100418.44;;;16.47;62.04
43119;BME280;28729;49.838;8.650;2022-07-06T02:04:42;100420.66;;;16.39;62.61
43119;BME280;28729;49.838;8.650;2022-07-06T02:08:44;100421.75;;;16.33;63.13
43119;BME280;28729;49.838;8.650;2022-07-06T02:12:46;100427.81;;;16.25;63.64
43119;BME280;28729;49.838;8.650;2022-07-06T02:16:48;100418.06;;;16.17;64.06
43119;BME280;28729;49.838;8.650;2022-07-06T02:20:52;100424.44;;;16.13;64.74
43119;BME280;28729;49.838;8.650;2022-07-06T02:24:53;100429.72;;;16.09;64.70
43119;BME280;28729;49.838;8.650;2022-07-06T02:28:56;100431.09;;;16.07;65.02
43119;BME280;28729;49.838;8.650;2022-07-06T02:32:58;100435.50;;;16.03;65.27
43119;BME280;28729;49.838;8.650;2022-07-06T02:37:00;100440.53;;;16.06;65.50
43119;BME280;28729;49.838;8.650;2022-07-06T02:41:02;100439.16;;;16.08;65.56
43119;BME280;28729;49.838;8.650;2022-07-06T02:45:05;100443.34;;;16.11;65.80
43119;BME280;28729;49.838;8.650;2022-07-06T02:49:07;100440.25;;;16.07;65.79
43119;BME280;28729;49.838;8.650;2022-07-06T02:53:09;100448.84;;;16.01;65.86
43119;BME280;28729;49.838;8.650;2022-07-06T02:57:11;100451.31;;;15.97;65.89
43119;BME280;28729;49.838;8.650;2022-07-06T03:01:13;100446.84;;;15.91;66.26
43119;BME280;28729;49.838;8.650;2022-07-06T03:05:16;100450.16;;;15.83;66.43
43119;BME280;28729;49.838;8.650;2022-07-06T03:09:18;100452.06;;;15.77;67.04
43119;BME280;28729;49.838;8.650;2022-07-06T03:13:20;100462.56;;;15.70;67.24
43119;BME280;28729;49.838;8.650;2022-07-06T03:17:28;100457.22;;;15.63;67.24
43119;BME280;28729;49.838;8.650;2022-07-06T03:21:30;100464.13;;;15.61;67.40
43119;BME280;28729;49.838;8.650;2022-07-06T03:25:32;100466.91;;;15.56;67.81
43119;BME280;28729;49.838;8.650;2022-07-06T03:29:34;100466.28;;;15.48;67.68
43119;BME280;28729;49.838;8.650;2022-07-06T03:33:37;100472.91;;;15.42;68.35
43119;BME280;28729;49.838;8.650;2022-07-06T03:37:39;100468.41;;;15.36;68.26
43119;BME280;28729;49.838;8.650;2022-07-06T03:41:41;100474.72;;;15.26;68.52
43119;BME280;28729;49.838;8.650;2022-07-06T03:45:44;100466.88;;;15.18;69.13
43119;BME280;28729;49.838;8.650;2022-07-06T03:49:45;100477.16;;;15.18;69.16
43119;BME280;28729;49.838;8.650;2022-07-06T03:53:49;100479.09;;;15.17;68.69
43119;BME280;28729;49.838;8.650;2022-07-06T03:57:51;100484.88;;;15.16;68.66
43119;BME280;28729;49.838;8.650;2022-07-06T04:01:56;100478.19;;;15.12;68.77
43119;BME280;28729;49.838;8.650;2022-07-06T04:05:58;100481.53;;;15.14;69.23
43119;BME280;28729;49.838;8.650;2022-07-06T04:10:00;100487.09;;;15.14;69.21
43119;BME280;28729;49.838;8.650;2022-07-06T04:14:02;100488.25;;;15.18;69.11
43119;BME280;28729;49.838;8.650;2022-07-06T04:18:04;100491.56;;;15.20;68.84
43119;BME280;28729;49.838;8.650;2022-07-06T04:22:11;100498.81;;;15.21;68.77
43119;BME280;28729;49.838;8.650;2022-07-06T04:26:13;100496.28;;;15.19;69.06
43119;BME280;28729;49.838;8.650;2022-07-06T04:30:16;100504.91;;;15.18;69.23
43119;BME280;28729;49.838;8.650;2022-07-06T04:34:17;100505.47;;;15.20;69.22
43119;BME280;28729;49.838;8.650;2022-07-06T04:38:19;100500.78;;;15.20;69.75
43119;BME280;28729;49.838;8.650;2022-07-06T04:42:26;100508.81;;;15.22;69.58
43119;BME280;28729;49.838;8.650;2022-07-06T04:46:28;100506.88;;;15.22;70.09
43119;BME280;28729;49.838;8.650;2022-07-06T04:50:31;100509.41;;;15.24;70.01
43119;BME280;28729;49.838;8.650;2022-07-06T04:54:43;100510.53;;;15.28;69.96
43119;BME280;28729;49.838;8.650;2022-07-06T04:58:45;100519.16;;;15.32;69.63
43119;BME280;28729;49.838;8.650;2022-07-06T05:02:50;100518.91;;;15.33;70.31
43119;BME280;28729;49.838;8.650;2022-07-06T05:06:54;100518.69;;;15.40;69.84
43119;BME280;28729;49.838;8.650;2022-07-06T05:10:56;100520.69;;;15.44;70.31
43119;BME280;28729;49.838;8.650;2022-07-06T05:14:58;100531.56;;;15.51;70.46
43119;BME280;28729;49.838;8.650;2022-07-06T05:19:00;100534.06;;;15.53;70.39
43119;BME280;28729;49.838;8.650;2022-07-06T05:23:03;100531.63;;;15.61;70.31
43119;BME280;28729;49.838;8.650;2022-07-06T05:27:07;100530.84;;;15.66;70.45
43119;BME280;28729;49.838;8.650;2022-07-06T05:31:08;100528.41;;;15.69;70.72
43119;BME280;28729;49.838;8.650;2022-07-06T05:35:10;100535.13;;;15.74;70.90
43119;BME280;28729;49.838;8.650;2022-07-06T05:39:34;100542.34;;;15.75;71.06
43119;BME280;28729;49.838;8.650;2022-07-06T05:43:44;100534.34;;;15.83;71.02
43119;BME280;28729;49.838;8.650;2022-07-06T05:47:46;100542.22;;;15.97;70.48
43119;BME280;28729;49.838;8.650;2022-07-06T05:52:09;100541.13;;;16.03;70.73
43119;BME280;28729;49.838;8.650;2022-07-06T05:56:11;100548.72;;;16.12;70.78
43119;BME280;28729;49.838;8.650;2022-07-06T06:00:14;100546.31;;;16.31;69.65
43119;BME280;28729;49.838;8.650;2022-07-06T06:04:24;100539.16;;;16.46;69.33
43119;BME280;28729;49.838;8.650;2022-07-06T06:08:26;100543.13;;;16.60;69.12
43119;BME280;28729;49.838;8.650;2022-07-06T06:12:29;100537.00;;;16.68;68.50
43119;BME280;28729;49.838;8.650;2022-07-06T06:16:32;100539.31;;;16.76;68.16
43119;BME280;28729;49.838;8.650;2022-07-06T06:20:35;100544.38;;;16.95;67.55
43119;BME280;28729;49.838;8.650;2022-07-06T06:24:37;100552.75;;;17.05;67.58
43119;BME280;28729;49.838;8.650;2022-07-06T06:28:38;100562.22;;;17.09;67.32
43119;BME280;28729;49.838;8.650;2022-07-06T06:32:40;100556.09;;;17.07;67.20
43119;BME280;28729;49.838;8.650;2022-07-06T06:36:42;100566.44;;;17.17;66.92
43119;BME280;28729;49.838;8.650;2022-07-06T06:40:44;100552.00;;;17.40;66.13
43119;BME280;28729;49.838;8.650;2022-07-06T06:44:45;100560.91;;;17.68;64.98
43119;BME280;28729;49.838;8.650;2022-07-06T06:48:47;100550.88;;;17.77;64.42
43119;BME280;28729;49.838;8.650;2022-07-06T06:52:49;100558.97;;;17.89;64.11
43119;BME280;28729;49.838;8.650;2022-07-06T06:56:51;100558.94;;;18.04;63.74
43119;BME280;28729;49.838;8.650;2022-07-06T07:00:53;100562.47;;;18.40;62.75
43119;BME280;28729;49.838;8.650;2022-07-06T07:04:55;100550.38;;;18.76;61.84
43119;BME280;28729;49.838;8.650;2022-07-06T07:08:57;100559.75;;;19.00;60.68
43119;BME280;28729;49.838;8.650;2022-07-06T07:12:59;100559.69;;;19.16;60.37
43119;BME280;28729;49.838;8.650;2022-07-06T07:17:01;100568.47;;;19.33;59.66
43119;BME280;28729;49.838;8.650;2022-07-06T07:21:03;100563.25;;;19.61;58.82
43119;BME280;28729;49.838;8.650;2022-07-06T07:25:05;100565.50;;;19.93;57.51
43119;BME280;28729;49.838;8.650;2022-07-06T07:29:07;100569.88;;;20.04;56.90
43119;BME280;28729;49.838;8.650;2022-07-06T07:33:09;100564.31;;;20.28;56.42
43119;BME280;28729;49.838;8.650;2022-07-06T07:37:10;100570.34;;;20.40;55.90
43119;BME280;28729;49.838;8.650;2022-07-06T07:41:13;100567.91;;;20.34;55.22
43119;BME280;28729;49.838;8.650;2022-07-06T07:45:15;100565.69;;;20.31;55.57
43119;BME280;28729;49.838;8.650;2022-07-06T07:49:17;100570.34;;;20.40;54.71
43119;BME280;28729;49.838;8.650;2022-07-06T07:53:22;100567.50;;;20.45;54.74
43119;BME280;28729;49.838;8.650;2022-07-06T07:57:25;100570.09;;;20.37;53.95
43119;BME280;28729;49.838;8.650;2022-07-06T08:01:28;100570.22;;;20.56;53.56
43119;BME280;28729;49.838;8.650;2022-07-06T08:05:34;100569.44;;;20.74;52.97
43119;BME280;28729;49.838;8.650;2022-07-06T08:09:36;100561.09;;;20.88;52.22
43119;BME280;28729;49.838;8.650;2022-07-06T08:13:40;100567.03;;;20.86;52.69
43119;BME280;28729;49.838;8.650;2022-07-06T08:17:41;100572.56;;;20.91;52.32
43119;BME280;28729;49.838;8.650;2022-07-06T08:21:43;100566.81;;;21.02;51.27
43119;BME280;28729;49.838;8.650;2022-07-06T08:25:45;100574.63;;;21.05;50.61
43119;BME280;28729;49.838;8.650;2022-07-06T08:29:47;100562.13;;;21.16;49.91
43119;BME280;28729;49.838;8.650;2022-07-06T08:33:48;100569.88;;;21.24;49.43
43119;BME280;28729;49.838;8.650;2022-07-06T08:37:51;100580.91;;;21.15;48.86
43119;BME280;28729;49.838;8.650;2022-07-06T08:41:55;100567.75;;;21.16;49.11
43119;BME280;28729;49.838;8.650;2022-07-06T08:45:58;100571.94;;;21.37;48.58
43119;BME280;28729;49.838;8.650;2022-07-06T08:50:01;100582.44;;;21.83;47.83
43119;BME280;28729;49.838;8.650;2022-07-06T08:54:03;100574.06;;;22.11;46.51
43119;BME280;28729;49.838;8.650;2022-07-06T08:58:07;100587.00;;;21.60;46.77
43119;BME280;28729;49.838;8.650;2022-07-06T09:02:13;100583.34;;;21.22;47.50
43119;BME280;28729;49.838;8.650;2022-07-06T09:06:23;100569.34;;;21.41;46.89
43119;BME280;28729;49.838;8.650;2022-07-06T09:10:25;100574.31;;;21.82;46.13
43119;BME280;28729;49.838;8.650;2022-07-06T09:14:28;100573.63;;;22.04;46.36
43119;BME280;28729;49.838;8.650;2022-07-06T09:18:38;100575.38;;;22.33;45.13
43119;BME280;28729;49.838;8.650;2022-07-06T09:22:40;100581.06;;;22.14;45.46
43119;BME280;28729;49.838;8.650;2022-07-06T09:26:42;100582.03;;;21.71;45.13
43119;BME280;28729;49.838;8.650;2022-07-06T09:30:44;100576.41;;;21.90;45.49
43119;BME280;28729;49.838;8.650;2022-07-06T09:34:46;100581.31;;;22.45;44.95
43119;BME280;28729;49.838;8.650;2022-07-06T09:38:48;100561.34;;;22.60;43.46
43119;BME280;28729;49.838;8.650;2022-07-06T09:42:50;100566.84;;;22.51;44.11
43119;BME280;28729;49.838;8.650;2022-07-06T09:46:52;100573.03;;;22.67;43.33
43119;BME280;28729;49.838;8.650;2022-07-06T09:50:59;100572.38;;;22.84;41.81
43119;BME280;28729;49.838;8.650;2022-07-06T09:55:06;100573.22;;;22.85;42.43
43119;BME280;28729;49.838;8.650;2022-07-06T09:59:22;100571.31;;;23.22;41.19
43119;BME280;28729;49.838;8.650;2022-07-06T10:03:26;100580.38;;;23.18;41.44
43119;BME280;28729;49.838;8.650;2022-07-06T10:07:28;100580.63;;;23.08;41.75
43119;BME280;28729;49.838;8.650;2022-07-06T10:11:33;100573.75;;;23.01;41.69
43119;BME280;28729;49.838;8.650;2022-07-06T10:15:39;100572.50;;;22.65;41.67
43119;BME280;28729;49.838;8.650;2022-07-06T10:19:42;100577.38;;;22.46;41.71
43119;BME280;28729;49.838;8.650;2022-07-06T10:23:44;100568.59;;;23.16;40.79
43119;BME280;28729;49.838;8.650;2022-07-06T10:27:47;100568.38;;;23.85;39.22
43119;BME280;28729;49.838;8.650;2022-07-06T10:31:52;100566.31;;;23.18;39.80
43119;BME280;28729;49.838;8.650;2022-07-06T10:35:56;100571.97;;;22.49;39.97
43119;BME280;28729;49.838;8.650;2022-07-06T10:39:58;100568.72;;;22.28;39.31
43119;BME280;28729;49.838;8.650;2022-07-06T10:44:21;100551.16;;;23.06;38.57
43119;BME280;28729;49.838;8.650;2022-07-06T10:48:24;100553.34;;;23.90;37.60
43119;BME280;28729;49.838;8.650;2022-07-06T10:56:43;100547.47;;;24.09;35.36
43119;BME280;28729;49.838;8.650;2022-07-06T11:00:54;100545.13;;;24.33;35.13
43119;BME280;28729;49.838;8.650;2022-07-06T11:04:57;100545.97;;;24.74;34.13
43119;BME280;28729;49.838;8.650;2022-07-06T11:14:18;100535.94;;;24.50;33.99
43119;BME280;28729;49.838;8.650;2022-07-06T11:18:22;100541.94;;;24.58;34.03
43119;BME280;28729;49.838;8.650;2022-07-06T11:22:26;100541.78;;;24.00;34.37
43119;BME280;28729;49.838;8.650;2022-07-06T11:26:31;100548.84;;;23.66;34.32
43119;BME280;28729;49.838;8.650;2022-07-06T11:30:40;100546.75;;;24.26;33.50
43119;BME280;28729;49.838;8.650;2022-07-06T11:34:44;100534.22;;;24.41;32.10
43119;BME280;28729;49.838;8.650;2022-07-06T11:38:47;100521.81;;;24.99;32.26
43119;BME280;28729;49.838;8.650;2022-07-06T11:42:58;100539.13;;;25.32;31.59
43119;BME280;28729;49.838;8.650;2022-07-06T11:47:01;100542.63;;;25.46;31.96
43119;BME280;28729;49.838;8.650;2022-07-06T11:51:05;100534.44;;;25.80;31.20
43119;BME280;28729;49.838;8.650;2022-07-06T11:55:13;100524.16;;;25.92;30.50
43119;BME280;28729;49.838;8.650;2022-07-06T11:59:33;100530.59;;;24.97;31.15
43119;BME280;28729;49.838;8.650;2022-07-06T12:04:13;100512.72;;;25.02;31.73
43119;BME280;28729;49.838;8.650;2022-07-06T12:08:15;100509.75;;;25.16;31.49
43119;BME280;28729;49.838;8.650;2022-07-06T12:12:17;100524.16;;;25.66;31.06
43119;BME280;28729;49.838;8.650;2022-07-06T12:16:21;100513.75;;;25.50;30.76
43119;BME280;28729;49.838;8.650;2022-07-06T12:20:31;100515.34;;;25.94;30.51
43119;BME280;28729;49.838;8.650;2022-07-06T12:24:42;100507.06;;;26.95;29.11
43119;BME280;28729;49.838;8.650;2022-07-06T12:34:12;100498.38;;;29.19;26.57
43119;BME280;28729;49.838;8.650;2022-07-06T12:38:23;100512.00;;;29.82;25.11
43119;BME280;28729;49.838;8.650;2022-07-06T12:42:26;100504.84;;;29.88;24.40
43119;BME280;28729;49.838;8.650;2022-07-06T12:46:38;100506.00;;;30.63;24.44
43119;BME280;28729;49.838;8.650;2022-07-06T12:50:49;100499.00;;;31.47;22.65
43119;BME280;28729;49.838;8.650;2022-07-06T12:55:02;100494.47;;;31.85;21.78
43119;BME280;28729;49.838;8.650;2022-07-06T12:59:22;100485.25;;;31.91;21.89
43119;BME280;28729;49.838;8.650;2022-07-06T13:03:24;100497.84;;;32.36;21.49
43119;BME280;28729;49.838;8.650;2022-07-06T13:07:28;100490.94;;;32.87;21.17
43119;BME280;28729;49.838;8.650;2022-07-06T13:11:32;100503.91;;;32.31;20.95
43119;BME280;28729;49.838;8.650;2022-07-06T13:15:35;100485.34;;;33.21;20.82
43119;BME280;28729;49.838;8.650;2022-07-06T13:19:37;100477.56;;;33.18;20.07
43119;BME280;28729;49.838;8.650;2022-07-06T13:23:48;100473.47;;;33.19;21.09
43119;BME280;28729;49.838;8.650;2022-07-06T13:27:53;100472.69;;;33.52;19.80
43119;BME280;28729;49.838;8.650;2022-07-06T13:31:55;100470.78;;;34.00;19.19
43119;BME280;28729;49.838;8.650;2022-07-06T13:35:57;100480.25;;;34.53;19.98
43119;BME280;28729;49.838;8.650;2022-07-06T13:40:08;100467.09;;;34.44;19.47
43119;BME280;28729;49.838;8.650;2022-07-06T13:44:15;100459.00;;;34.54;19.75
43119;BME280;28729;49.838;8.650;2022-07-06T13:48:26;100458.88;;;34.94;18.64
43119;BME280;28729;49.838;8.650;2022-07-06T13:53:00;100451.84;;;34.78;18.83
43119;BME280;28729;49.838;8.650;2022-07-06T13:57:08;100453.38;;;35.34;18.04
43119;BME280;28729;49.838;8.650;2022-07-06T14:01:13;100450.94;;;34.66;18.64
43119;BME280;28729;49.838;8.650;2022-07-06T14:05:31;100443.03;;;34.53;18.88
43119;BME280;28729;49.838;8.650;2022-07-06T14:09:36;100447.97;;;33.33;19.82
43119;BME280;28729;49.838;8.650;2022-07-06T14:13:41;100440.69;;;32.79;20.48
43119;BME280;28729;49.838;8.650;2022-07-06T14:17:49;100445.41;;;32.67;20.48
43119;BME280;28729;49.838;8.650;2022-07-06T14:26:47;100424.16;;;32.91;20.79
43119;BME280;28729;49.838;8.650;2022-07-06T14:31:33;100429.03;;;33.92;19.79
43119;BME280;28729;49.838;8.650;2022-07-06T14:36:37;100422.44;;;34.29;19.43
43119;BME280;28729;49.838;8.650;2022-07-06T14:40:50;100414.47;;;35.29;18.19
43119;BME280;28729;49.838;8.650;2022-07-06T14:44:51;100423.25;;;34.92;18.44
43119;BME280;28729;49.838;8.650;2022-07-06T14:53:54;100410.84;;;35.47;18.61
43119;BME280;28729;49.838;8.650;2022-07-06T14:58:07;100415.81;;;35.75;18.16
43119;BME280;28729;49.838;8.650;2022-07-06T15:02:14;100426.84;;;34.19;19.27
43119;BME280;28729;49.838;8.650;2022-07-06T15:06:34;100420.78;;;31.83;20.93
43119;BME280;28729;49.838;8.650;2022-07-06T15:10:56;100416.53;;;29.93;23.03
43119;BME280;28729;49.838;8.650;2022-07-06T15:15:23;100413.28;;;28.30;24.49
43119;BME280;28729;49.838;8.650;2022-07-06T15:19:58;100412.75;;;27.66;25.89
43119;BME280;28729;49.838;8.650;2022-07-06T15:24:03;100406.22;;;27.99;25.40
43119;BME280;28729;49.838;8.650;2022-07-06T15:28:08;100418.47;;;27.91;25.33
43119;BME280;28729;49.838;8.650;2022-07-06T15:32:16;100422.75;;;27.10;26.16
43119;BME280;28729;49.838;8.650;2022-07-06T15:36:19;100413.59;;;26.41;26.87
43119;BME280;28729;49.838;8.650;2022-07-06T15:40:22;100411.25;;;25.84;27.37
43119;BME280;28729;49.838;8.650;2022-07-06T15:44:26;100410.69;;;25.35;29.00
43119;BME280;28729;49.838;8.650;2022-07-06T15:48:30;100409.72;;;24.87;28.79
43119;BME280;28729;49.838;8.650;2022-07-06T15:52:43;100412.16;;;24.45;28.99
43119;BME280;28729;49.838;8.650;2022-07-06T15:56:48;100406.25;;;24.16;29.74
43119;BME280;28729;49.838;8.650;2022-07-06T16:00:50;100407.81;;;23.91;30.16
43119;BME280;28729;49.838;8.650;2022-07-06T16:05:04;100411.28;;;23.87;29.85
43119;BME280;28729;49.838;8.650;2022-07-06T16:09:20;100406.00;;;23.86;30.32
43119;BME280;28729;49.838;8.650;2022-07-06T16:13:21;100404.47;;;23.80;29.98
43119;BME280;28729;49.838;8.650;2022-07-06T16:17:27;100396.69;;;23.77;30.60
43119;BME280;28729;49.838;8.650;2022-07-06T16:21:30;100395.25;;;23.65;30.92
43119;BME280;28729;49.838;8.650;2022-07-06T16:25:59;100400.28;;;23.46;31.04
43119;BME280;28729;49.838;8.650;2022-07-06T16:30:29;100389.72;;;23.52;31.45
43119;BME280;28729;49.838;8.650;2022-07-06T16:34:52;100394.06;;;23.27;32.83
43119;BME280;28729;49.838;8.650;2022-07-06T16:38:59;100387.25;;;22.83;33.19
43119;BME280;28729;49.838;8.650;2022-07-06T16:43:20;100380.44;;;22.97;33.04
43119;BME280;28729;49.838;8.650;2022-07-06T16:47:22;100395.31;;;22.98;33.27
43119;BME280;28729;49.838;8.650;2022-07-06T16:51:29;100390.34;;;22.95;33.29
43119;BME280;28729;49.838;8.650;2022-07-06T17:00:33;100381.16;;;23.03;33.33
43119;BME280;28729;49.838;8.650;2022-07-06T17:05:01;100373.44;;;23.09;33.46
43119;BME280;28729;49.838;8.650;2022-07-06T17:09:21;100387.16;;;23.10;33.14
43119;BME280;28729;49.838;8.650;2022-07-06T17:13:22;100380.00;;;23.04;32.63
43119;BME280;28729;49.838;8.650;2022-07-06T17:17:25;100377.31;;;22.99;33.21
43119;BME280;28729;49.838;8.650;2022-07-06T17:21:30;100365.53;;;22.74;33.63
43119;BME280;28729;49.838;8.650;2022-07-06T17:25:32;100372.38;;;22.46;33.76
43119;BME280;28729;49.838;8.650;2022-07-06T17:29:33;100370.94;;;22.71;33.38
43119;BME280;28729;49.838;8.650;2022-07-06T17:33:36;100381.28;;;22.84;33.90
43119;BME280;28729;49.838;8.650;2022-07-06T17:37:38;100379.09;;;22.95;34.20
43119;BME280;28729;49.838;8.650;2022-07-06T17:41:46;100380.22;;;22.94;34.58
43119;BME280;28729;49.838;8.650;2022-07-06T17:45:47;100386.91;;;22.62;34.53
43119;BME280;28729;49.838;8.650;2022-07-06T17:54:25;100374.06;;;22.05;35.30
43119;BME280;28729;49.838;8.650;2022-07-06T17:58:27;100385.28;;;21.92;36.27
43119;BME280;28729;49.838;8.650;2022-07-06T18:02:28;100387.59;;;21.76;35.67
43119;BME280;28729;49.838;8.650;2022-07-06T18:06:31;100388.41;;;21.63;36.21
43119;BME280;28729;49.838;8.650;2022-07-06T18:10:44;100392.84;;;21.50;36.40
43119;BME280;28729;49.838;8.650;2022-07-06T18:14:58;100386.34;;;21.35;36.54
43119;BME280;28729;49.838;8.650;2022-07-06T18:19:00;100386.72;;;21.15;36.97
43119;BME280;28729;49.838;8.650;2022-07-06T18:23:02;100379.22;;;21.10;36.70
43119;BME280;28729;49.838;8.650;2022-07-06T18:27:04;100385.44;;;21.07;36.26
43119;BME280;28729;49.838;8.650;2022-07-06T18:31:06;100388.50;;;20.92;36.76
43119;BME280;28729;49.838;8.650;2022-07-06T18:35:08;100381.81;;;20.88;36.48
43119;BME280;28729;49.838;8.650;2022-07-06T18:39:11;100394.72;;;20.70;36.65
43119;BME280;28729;49.838;8.650;2022-07-06T18:43:13;100393.66;;;20.47;37.39
43119;BME280;28729;49.838;8.650;2022-07-06T18:47:18;100399.19;;;20.28;38.15
43119;BME280;28729;49.838;8.650;2022-07-06T18:51:23;100397.75;;;20.12;38.05
43119;BME280;28729;49.838;8.650;2022-07-06T18:55:25;100395.38;;;20.00;38.02
43119;BME280;28729;49.838;8.650;2022-07-06T18:59:27;100404.19;;;19.88;38.28
43119;BME280;28729;49.838;8.650;2022-07-06T19:03:29;100400.16;;;19.75;38.51
43119;BME280;28729;49.838;8.650;2022-07-06T19:07:31;100397.72;;;19.64;38.66
43119;BME280;28729;49.838;8.650;2022-07-06T19:11:32;100395.34;;;19.52;38.89
43119;BME280;28729;49.838;8.650;2022-07-06T19:15:34;100396.84;;;19.39;38.91
43119;BME280;28729;49.838;8.650;2022-07-06T19:19:36;100394.78;;;19.21;39.66
43119;BME280;28729;49.838;8.650;2022-07-06T19:23:37;100399.34;;;19.11;39.87
43119;BME280;28729;49.838;8.650;2022-07-06T19:27:40;100401.09;;;19.02;39.72
43119;BME280;28729;49.838;8.650;2022-07-06T19:31:42;100404.81;;;18.93;40.42
43119;BME280;28729;49.838;8.650;2022-07-06T19:35:44;100407.94;;;18.86;40.24
43119;BME280;28729;49.838;8.650;2022-07-06T19:39:46;100415.00;;;18.73;40.74
43119;BME280;28729;49.838;8.650;2022-07-06T19:43:47;100412.00;;;18.59;41.28
43119;BME280;28729;49.838;8.650;2022-07-06T19:47:49;100420.16;;;18.45;41.57
43119;BME280;28729;49.838;8.650;2022-07-06T19:51:51;100424.41;;;18.33;41.99
43119;BME280;28729;49.838;8.650;2022-07-06T19:55:52;100422.78;;;18.21;42.75
43119;BME280;28729;49.838;8.650;2022-07-06T19:59:55;100428.41;;;18.11;43.10
43119;BME280;28729;49.838;8.650;2022-07-06T20:03:57;100428.19;;;17.97;43.47
43119;BME280;28729;49.838;8.650;2022-07-06T20:07:59;100428.50;;;17.86;43.68
43119;BME280;28729;49.838;8.650;2022-07-06T20:12:01;100442.72;;;17.74;44.33
43119;BME280;28729;49.838;8.650;2022-07-06T20:16:03;100443.84;;;17.63;44.74
43119;BME280;28729;49.838;8.650;2022-07-06T20:20:05;100439.41;;;17.51;44.97
43119;BME280;28729;49.838;8.650;2022-07-06T20:24:07;100438.28;;;17.42;45.27
43119;BME280;28729;49.838;8.650;2022-07-06T20:28:09;100434.41;;;17.33;45.50
43119;BME280;28729;49.838;8.650;2022-07-06T20:32:11;100438.31;;;17.22;46.05
43119;BME280;28729;49.838;8.650;2022-07-06T20:36:13;100432.47;;;17.13;46.08
43119;BME280;28729;49.838;8.650;2022-07-06T20:40:14;100434.13;;;17.09;46.47
43119;BME280;28729;49.838;8.650;2022-07-06T20:44:16;100438.59;;;17.05;46.98
43119;BME280;28729;49.838;8.650;2022-07-06T20:48:21;100431.91;;;17.01;46.79
43119;BME280;28729;49.838;8.650;2022-07-06T20:52:25;100427.19;;;16.96;47.55
43119;BME280;28729;49.838;8.650;2022-07-06T20:56:27;100425.78;;;16.94;47.45
43119;BME280;28729;49.838;8.650;2022-07-06T21:00:28;100414.91;;;16.92;47.98
43119;BME280;28729;49.838;8.650;2022-07-06T21:04:33;100421.91;;;16.90;47.72
43119;BME280;28729;49.838;8.650;2022-07-06T21:08:35;100422.16;;;16.83;48.07
43119;BME280;28729;49.838;8.650;2022-07-06T21:12:37;100431.34;;;16.78;48.30
43119;BME280;28729;49.838;8.650;2022-07-06T21:16:39;100429.63;;;16.72;48.11
43119;BME280;28729;49.838;8.650;2022-07-06T21:20:40;100419.59;;;16.66;48.35
43119;BME280;28729;49.838;8.650;2022-07-06T21:24:43;100421.53;;;16.60;48.65
43119;BME280;28729;49.838;8.650;2022-07-06T21:28:44;100412.91;;;16.57;49.23
43119;BME280;28729;49.838;8.650;2022-07-06T21:32:46;100414.00;;;16.56;49.91
43119;BME280;28729;49.838;8.650;2022-07-06T21:36:48;100413.16;;;16.55;50.20
43119;BME280;28729;49.838;8.650;2022-07-06T21:40:50;100405.13;;;16.54;49.96
43119;BME280;28729;49.838;8.650;2022-07-06T21:44:52;100402.03;;;16.55;50.30
43119;BME280;28729;49.838;8.650;2022-07-06T21:48:53;100407.34;;;16.57;50.27
43119;BME280;28729;49.838;8.650;2022-07-06T21:52:55;100395.38;;;16.61;50.61
43119;BME280;28729;49.838;8.650;2022-07-06T21:56:57;100398.75;;;16.69;50.44